BLKO2: Chikashia River, Blackwell, OK

                                SHEF ID:       BLKO2     Chikaskia River near Blackwell,
STATION TYPE:
Regulating: Stage = 29.00, Flow = 19174

PRECIP STAGE STAGE(2) RIV-FLOW VOLTAGE BAT-LOAD
in ft ft cfs volt volt
Ccp-Rev Ccp-Rev Ccp-Rev Ccp-Rev Ccp-Rev Ccp-Rev
(America/Chicago)
09/03 00:00 ---- 4.78 ---- 926 13.20 ----
09/03 01:00 ---- 4.80 ---- 934 13.19 ----
09/03 02:00 ---- 4.83 ---- 947 13.17 ----
09/03 03:00 ---- 4.89 ---- 972 13.18 ----
09/03 04:00 ---- 5.04 ---- 1037 13.15 ----
09/03 05:00 ---- 5.25 ---- 1130 13.14 ----
09/03 06:00 ---- 5.51 ---- 1245 13.11 ----
09/03 07:00 ---- 5.71 ---- 1334 13.11 ----
09/03 08:00 ---- 5.86 ---- 1400 13.14 ----
09/03 09:00 ---- 5.96 ---- 1445 13.21 ----
09/03 10:00 ---- 5.98 ---- 1454 13.33 ----
09/03 11:00 ---- 5.93 ---- 1432 13.64 ----
09/03 12:00 ---- 5.85 ---- 1396 13.96 ----
09/03 13:00 ---- 5.72 ---- 1338 13.53 ----
09/03 14:00 ---- 5.59 ---- 1280 13.51 ----
09/03 15:00 ---- 5.43 ---- 1209 13.47 ----
09/03 16:00 ---- 5.28 ---- 1143 13.47 ----
09/03 17:00 ---- 5.13 ---- 1077 13.51 ----
09/03 18:00 ---- 4.99 ---- 1015 13.50 ----
09/03 19:00 ---- 4.86 ---- 959 13.56 ----
09/03 20:00 ---- 4.75 ---- 913 13.31 ----
09/03 21:00 ---- 4.66 ---- 875 13.20 ----
09/03 22:00 ---- 4.58 ---- 842 13.24 ----
09/03 23:00 ---- 4.50 ---- 809 13.22 ----
Data processed at Thu 04Sep2025 04:36 GMT

Parsing this webpage?

Checkout our new Data API! CWMSDataAPI (CDA)

Timeseries IDs (TSIDs)

TSIDs used from left to right in the data table
BLAC.Precip-Inc.Total.1Hour.1Hour.Ccp-Rev
BLAC.Stage.Inst.1Hour.0.Ccp-Rev
BLAC.Stage-Alt.Inst.1Hour.0.Ccp-Rev
BLAC.Flow.Inst.1Hour.0.Ccp-Rev
BLAC.Volt-Battery.Inst.1Hour.0.Ccp-Rev
BLAC.Volt-Battery Load.Inst.1Hour.0.Ccp-Rev

                            

All information presented herein is the property of the government of the United States of America and may be revised or deleted at any time without prior notice. Dissemination of this information without the expressed written consent of the Public Affairs Office, Tulsa District U.S. Army Corps of Engineers is strictly prohibited. These data are gathered electronically and, as presented, have NOT undergone any form of quality control. These data are NOT guaranteed to be valid or correct.